createdAt,value
2024-04-18T00:02:14.817Z,0
2024-04-18T00:07:04.289Z,0
2024-04-18T00:17:14.878Z,0
2024-04-18T00:22:03.521Z,0
2024-04-18T00:32:16.472Z,1
2024-04-18T00:37:07.202Z,0
2024-04-18T00:42:10.062Z,0
2024-04-18T00:47:10.226Z,0
2024-04-18T00:52:00.510Z,0
2024-04-18T00:57:07.251Z,0
2024-04-18T01:02:07.417Z,0
2024-04-18T01:07:08.322Z,0
2024-04-18T01:12:08.428Z,0
2024-04-18T01:17:02.617Z,0
2024-04-18T01:22:08.062Z,0
2024-04-18T01:27:05.394Z,0
2024-04-18T01:32:07.317Z,0
2024-04-18T01:36:58.512Z,0
2024-04-18T01:41:57.345Z,0
2024-04-18T01:47:04.371Z,0
2024-04-18T01:52:03.182Z,0
2024-04-18T01:57:05.278Z,0
2024-04-18T02:02:08.362Z,0
2024-04-18T02:07:02.196Z,0
2024-04-18T02:12:01.927Z,0
2024-04-18T02:17:00.207Z,0
2024-04-18T02:22:01.149Z,0
2024-04-18T02:27:03.912Z,0
2024-04-18T02:32:09.630Z,0
2024-04-18T02:36:58.893Z,0
2024-04-18T02:42:04.854Z,0
2024-04-18T02:47:02.418Z,0
2024-04-18T02:52:01.530Z,0
2024-04-18T02:57:03.508Z,0
2024-04-18T03:02:12.673Z,0
2024-04-18T03:07:04.655Z,1
2024-04-18T03:12:05.646Z,0
2024-04-18T03:17:08.908Z,1.5
2024-04-18T03:22:06.972Z,0
2024-04-18T03:27:09.632Z,0
2024-04-18T03:32:03.984Z,0
2024-04-18T03:36:59.619Z,1
2024-04-18T03:42:11.512Z,1.824
2024-04-18T03:47:09.811Z,4.5
2024-04-18T03:52:07.825Z,8.5
2024-04-18T03:57:07.214Z,14.333
2024-04-18T04:02:09.109Z,24.067
2024-04-18T04:07:04.927Z,37.462
2024-04-18T04:12:11.280Z,56.692
2024-04-18T04:17:06.687Z,91.5
2024-04-18T04:22:12.322Z,128.182
2024-04-18T04:27:03.438Z,162.4
2024-04-18T04:32:10.136Z,191.5
2024-04-18T04:37:08.227Z,242.667
2024-04-18T04:42:11.473Z,283.25
2024-04-18T04:47:23.909Z,327.25
2024-04-18T04:52:15.189Z,362
2024-04-18T05:02:25.992Z,485.75
2024-04-18T05:07:09.865Z,553.5
2024-04-18T05:12:18.952Z,489.5
2024-04-18T05:17:12.209Z,455.375
2024-04-18T05:22:09.364Z,435.75
2024-04-18T05:27:12.070Z,443.5
2024-04-18T05:37:16.950Z,592.375
2024-04-18T05:42:17.082Z,670.25
2024-04-18T05:47:13.263Z,1130.875
2024-04-18T05:52:19.316Z,1312.125
2024-04-18T05:57:09.487Z,1065.5
2024-04-18T06:02:16.297Z,827.5
2024-04-18T06:07:16.594Z,853.125
2024-04-18T06:12:12.164Z,1222
2024-04-18T06:17:17.399Z,838.25
2024-04-18T06:27:13.710Z,1051.125
2024-04-18T06:37:13.195Z,1875
2024-04-18T06:42:12.395Z,2317.667
2024-04-18T06:47:21.246Z,2529.167
2024-04-18T06:52:18.197Z,2599.833
2024-04-18T07:02:25.808Z,3093
2024-04-18T07:07:17.019Z,3083.8
2024-04-18T07:12:12.462Z,2437.833
2024-04-18T07:22:16.257Z,2614.333
2024-04-18T07:27:13.413Z,3152.2
2024-04-18T07:37:14.158Z,4669.75
2024-04-18T07:42:16.905Z,3643
2024-04-18T07:47:17.531Z,3727.6
2024-04-18T07:57:15.090Z,4769
2024-04-18T08:02:21.009Z,4895.75
2024-04-18T08:07:24.211Z,4707.5
2024-04-18T08:13:40.709Z,5215.75
2024-04-18T08:17:22.439Z,5190.75
2024-04-18T08:22:14.298Z,5213.5
2024-04-18T08:26:59.611Z,5598
2024-04-18T08:32:09.364Z,5531.2
2024-04-18T08:37:13.681Z,5959.4
2024-04-18T08:42:07.113Z,6100.8
2024-04-18T08:47:17.753Z,2893
2024-04-18T08:52:13.325Z,3072.2
2024-04-18T08:57:10.967Z,6022
2024-04-18T09:02:21.252Z,6288.8
2024-04-18T09:07:15.280Z,6683
2024-04-18T09:12:18.554Z,1580.25
2024-04-18T09:17:10.455Z,1373.714
2024-04-18T09:22:16.137Z,6352.8
2024-04-18T09:27:14.520Z,6448.2
2024-04-18T09:32:32.014Z,6609.6
2024-04-18T09:37:12.346Z,6983.4
2024-04-18T09:42:11.985Z,7537.6
2024-04-18T09:47:21.599Z,3593.857
2024-04-18T09:52:05.850Z,6873
2024-04-18T10:02:20.049Z,6710
2024-04-18T10:07:12.176Z,1058.625
2024-04-18T10:12:13.760Z,1086.25
2024-04-18T10:17:17.085Z,719.25
2024-04-18T10:22:11.666Z,597.25
2024-04-18T10:27:10.798Z,6711.6
2024-04-18T10:32:11.982Z,5114.2
2024-04-18T10:37:11.962Z,1598
2024-04-18T10:42:12.357Z,2062.4
2024-04-18T10:47:09.392Z,897.625
2024-04-18T10:52:15.886Z,1156
2024-04-18T10:57:19.398Z,1937.286
2024-04-18T11:02:16.960Z,1193.5
2024-04-18T11:07:07.065Z,1262.625
2024-04-18T11:12:07.986Z,1490
2024-04-18T11:17:16.989Z,834.625
2024-04-18T11:22:06.585Z,852.875
2024-04-18T11:27:10.995Z,1285
2024-04-18T11:32:14.291Z,1354.5
2024-04-18T11:37:11.329Z,462.875
2024-04-18T11:42:03.116Z,430.5
2024-04-18T11:47:13.943Z,756.125
2024-04-18T11:52:14.222Z,1294.875
2024-04-18T11:57:13.838Z,1495.75
2024-04-18T12:02:10.747Z,1170
2024-04-18T12:07:09.284Z,838.875
2024-04-18T12:12:12.540Z,835.5
2024-04-18T12:17:10.617Z,826.25
2024-04-18T12:22:15.335Z,1061.5
2024-04-18T12:27:14.363Z,942.75
2024-04-18T12:37:12.483Z,707.125
2024-04-18T12:42:13.673Z,627.875
2024-04-18T12:47:31.667Z,769.125
2024-04-18T12:52:12.744Z,669.625
2024-04-18T12:57:03.651Z,545.125
2024-04-18T13:02:19.382Z,475.75
2024-04-18T13:07:11.503Z,383.25
2024-04-18T13:12:10.908Z,371.375
2024-04-18T13:17:16.202Z,327.25
2024-04-18T13:22:00.711Z,360.375
2024-04-18T13:27:10.966Z,498.625
2024-04-18T13:32:18.792Z,802.625
2024-04-18T13:37:11.720Z,452.625
2024-04-18T13:42:01.411Z,388
2024-04-18T13:47:11.891Z,355.125
2024-04-18T13:52:05.544Z,637.125
2024-04-18T13:57:08.699Z,521.625
2024-04-18T14:02:11.910Z,401.125
2024-04-18T14:07:10.495Z,415.375
2024-04-18T14:12:06.365Z,618.25
2024-04-18T14:17:11.321Z,662.625
2024-04-18T14:22:07.412Z,646.625
2024-04-18T14:27:10.106Z,343.625
2024-04-18T14:32:09.887Z,614.625
2024-04-18T14:37:11.574Z,832.375
2024-04-18T14:42:16.433Z,712.5
2024-04-18T14:47:11.584Z,481.375
2024-04-18T14:52:11.479Z,441.625
2024-04-18T14:57:07.289Z,379.5
2024-04-18T15:02:10.963Z,320.875
2024-04-18T15:07:10.468Z,453.75
2024-04-18T15:12:12.030Z,487.125
2024-04-18T15:17:12.626Z,396.75
2024-04-18T15:22:10.729Z,280
2024-04-18T15:32:17.429Z,354.25
2024-04-18T15:37:12.694Z,203.545
2024-04-18T15:42:14.444Z,203.2
2024-04-18T15:47:21.513Z,185
2024-04-18T15:52:13.214Z,165.727
2024-04-18T15:57:17.414Z,140
2024-04-18T16:02:12.776Z,139.182
2024-04-18T16:07:12.421Z,101.636
2024-04-18T16:12:10.671Z,134.182
2024-04-18T16:17:19.091Z,190.4
2024-04-18T16:27:03.058Z,112.462
2024-04-18T16:32:13.836Z,98.692
2024-04-18T16:37:08.879Z,88.923
2024-04-18T16:42:06.066Z,110.667
2024-04-18T16:47:12.492Z,126.917
2024-04-18T16:52:09.772Z,156.636
2024-04-18T16:57:15.316Z,149.636
2024-04-18T17:02:25.522Z,120.083
2024-04-18T17:07:13.016Z,89.923
2024-04-18T17:12:08.926Z,76.538
2024-04-18T17:17:13.340Z,49.067
2024-04-18T17:22:06.461Z,41
2024-04-18T17:27:12.544Z,38.8
2024-04-18T17:32:12.283Z,31.6
2024-04-18T17:37:09.602Z,22.692
2024-04-18T17:47:25.653Z,11.667
2024-04-18T17:52:10.722Z,6.143
2024-04-18T17:57:05.067Z,2.667
2024-04-18T18:02:17.155Z,1
2024-04-18T18:07:09.437Z,0
2024-04-18T18:12:03.042Z,0
2024-04-18T18:17:03.429Z,0
2024-04-18T18:22:07.278Z,0
2024-04-18T18:27:08.340Z,2.5
2024-04-18T18:32:20.753Z,0
2024-04-18T18:37:06.566Z,1
2024-04-18T18:42:05.100Z,0
2024-04-18T18:47:21.855Z,2.5
2024-04-18T18:52:13.752Z,0
2024-04-18T18:57:08.543Z,0
2024-04-18T19:02:14.575Z,0
2024-04-18T19:07:02.235Z,2.333
2024-04-18T19:11:56.166Z,0
2024-04-18T19:17:03.794Z,0
2024-04-18T19:22:05.326Z,0
2024-04-18T19:32:16.464Z,0
2024-04-18T19:37:03.144Z,2.5
2024-04-18T19:42:05.067Z,0
2024-04-18T19:47:17.082Z,0
2024-04-18T19:52:05.978Z,0
2024-04-18T19:57:07.480Z,0
2024-04-18T20:02:19.402Z,2.5
2024-04-18T20:07:07.845Z,0
2024-04-18T20:12:12.488Z,0
2024-04-18T20:17:22.336Z,0
2024-04-18T20:27:09.195Z,0
2024-04-18T20:32:15.964Z,0
2024-04-18T20:37:09.869Z,0
2024-04-18T20:42:06.989Z,0
2024-04-18T20:47:14.057Z,0
2024-04-18T20:57:05.485Z,1
2024-04-18T21:02:17.754Z,0
2024-04-18T21:07:06.320Z,0
2024-04-18T21:12:05.335Z,0
2024-04-18T21:17:02.378Z,0
2024-04-18T21:21:57.626Z,0
2024-04-18T21:27:04.758Z,0
2024-04-18T21:32:06.435Z,0
2024-04-18T21:37:04.188Z,1.5
2024-04-18T21:42:07.496Z,0
2024-04-18T21:47:08.940Z,0
2024-04-18T21:52:03.774Z,2.5
2024-04-18T21:57:08.494Z,0
2024-04-18T22:02:27.677Z,0
2024-04-18T22:07:14.007Z,0
2024-04-18T22:11:59.467Z,0
2024-04-18T22:17:28.188Z,0
2024-04-18T22:22:07.247Z,0
2024-04-18T22:27:10.732Z,0
2024-04-18T22:32:12.670Z,0
2024-04-18T22:37:07.371Z,0
2024-04-18T22:42:01.092Z,0
2024-04-18T22:47:09.619Z,0
2024-04-18T22:51:58.996Z,0
2024-04-18T22:57:04.623Z,0
2024-04-18T23:02:10.611Z,0
2024-04-18T23:07:09.807Z,0
2024-04-18T23:12:06.668Z,0
2024-04-18T23:17:01.212Z,0
2024-04-18T23:21:53.649Z,0
2024-04-18T23:26:56.514Z,0
2024-04-18T23:32:00.584Z,0
2024-04-18T23:36:57.450Z,0
2024-04-18T23:41:51.941Z,0
2024-04-18T23:47:02.597Z,0
2024-04-18T23:52:02.013Z,0
2024-04-18T23:57:06.259Z,0
